Time;durP1;ratioP1;P1;durP2;ratioP2;P2;SDS_P1;SDS_P2;PMS_P1;PMS_P2;Temp;Humidity;BMP_temperature;BMP_pressure;BME280_temperature;BME280_humidity;BME280_pressure;Samples;Min_cycle;Max_cycle;Signal;HPM_P1;HPM_P2
2022/03/05 00:01:26;;;;;;;14.47;7.30;;;-1.90;99.90;;;;;;4986767;28;20205;-77
2022/03/05 00:03:52;;;;;;;27.97;8.10;;;-1.90;99.90;;;;;;4974359;28;20179;-76
2022/03/05 00:06:17;;;;;;;17.93;8.90;;;-1.90;99.90;;;;;;4974773;28;20385;-77
2022/03/05 00:08:43;;;;;;;12.53;7.73;;;-2.00;99.90;;;;;;4976176;28;20178;-77
2022/03/05 00:11:08;;;;;;;14.90;7.90;;;-2.00;99.90;;;;;;4980110;28;20193;-77
2022/03/05 00:13:36;;;;;;;18.60;8.87;;;-2.00;99.90;;;;;;4977801;28;20210;-77
2022/03/05 00:16:02;;;;;;;15.47;8.27;;;-2.10;99.90;;;;;;4976763;28;20205;-77
2022/03/05 00:18:28;;;;;;;16.57;8.43;;;-2.10;99.90;;;;;;4976132;28;20882;-77
2022/03/05 00:20:53;;;;;;;13.37;7.23;;;-2.10;99.90;;;;;;4975769;28;20512;-75
2022/03/05 00:23:19;;;;;;;20.10;8.40;;;-2.10;99.90;;;;;;4974851;28;20676;-76
2022/03/05 00:25:45;;;;;;;15.33;7.80;;;-2.10;99.90;;;;;;4975932;28;20241;-77
2022/03/05 00:28:11;;;;;;;15.33;7.20;;;-2.10;99.90;;;;;;4974560;28;20285;-77
2022/03/05 00:30:37;;;;;;;14.80;8.37;;;-2.20;99.90;;;;;;4974027;28;20190;-77
2022/03/05 00:33:03;;;;;;;17.57;9.90;;;-2.20;99.90;;;;;;4972823;28;20208;-75
2022/03/05 00:35:29;;;;;;;19.00;9.83;;;-2.20;99.90;;;;;;4975221;28;20434;-77
2022/03/05 00:37:55;;;;;;;16.50;8.40;;;-2.20;99.90;;;;;;4973773;28;20460;-77
2022/03/05 00:40:21;;;;;;;15.10;9.13;;;-2.20;99.90;;;;;;4974752;28;20417;-77
2022/03/05 00:42:47;;;;;;;15.63;9.90;;;-2.30;99.90;;;;;;4974925;28;20433;-77
2022/03/05 00:45:13;;;;;;;23.60;9.60;;;-2.30;99.90;;;;;;4973923;28;20799;-76
2022/03/05 00:47:38;;;;;;;15.50;7.87;;;-2.30;99.90;;;;;;4973437;28;20199;-77
2022/03/05 00:50:06;;;;;;;17.47;8.90;;;-2.40;99.90;;;;;;4975210;28;20241;-76
2022/03/05 00:52:31;;;;;;;15.63;8.97;;;-2.40;99.90;;;;;;4973528;28;20207;-76
2022/03/05 00:54:57;;;;;;;17.87;8.80;;;-2.40;99.90;;;;;;4972960;28;20407;-76
2022/03/05 00:57:22;;;;;;;18.67;9.13;;;-2.40;99.90;;;;;;4973527;28;20659;-77
2022/03/05 00:59:48;;;;;;;15.23;9.37;;;-2.50;99.90;;;;;;4974609;28;20318;-77
2022/03/05 05:32:33;;;;;;;12.93;5.60;;;-4.40;99.90;;;;;;5316906;23;20556;-70
2022/03/05 05:34:58;;;;;;;20.27;8.13;;;-4.40;99.90;;;;;;4998130;28;20687;-73
2022/03/05 05:37:24;;;;;;;12.57;7.03;;;-4.40;99.90;;;;;;5002151;28;20638;-74
2022/03/05 05:39:50;;;;;;;19.10;7.73;;;-4.40;99.90;;;;;;5011431;28;20178;-72
2022/03/05 05:42:15;;;;;;;19.37;7.70;;;-4.40;99.90;;;;;;4997551;28;20195;-73
2022/03/05 05:44:41;;;;;;;16.73;8.57;;;-4.50;99.90;;;;;;4991433;28;20199;-73
2022/03/05 05:47:07;;;;;;;13.43;8.30;;;-4.50;99.90;;;;;;4990820;28;20429;-73
2022/03/05 05:49:33;;;;;;;17.60;7.40;;;-4.50;99.90;;;;;;4991572;28;20282;-73
2022/03/05 05:51:59;;;;;;;14.80;7.30;;;-4.50;99.90;;;;;;4992232;28;20532;-74
2022/03/05 05:54:24;;;;;;;12.40;8.00;;;-4.50;99.90;;;;;;4991131;28;20397;-71
2022/03/05 05:56:50;;;;;;;19.47;8.90;;;-4.40;99.90;;;;;;4991775;28;20233;-71
2022/03/05 05:59:16;;;;;;;16.50;8.10;;;-4.40;99.90;;;;;;4990534;28;20259;-75
2022/03/05 06:01:42;;;;;;;13.13;7.10;;;-4.40;99.90;;;;;;4991379;28;20231;-75
2022/03/05 06:04:07;;;;;;;16.90;7.60;;;-4.30;99.90;;;;;;4990765;28;20183;-75
2022/03/05 06:06:33;;;;;;;12.77;7.27;;;-4.30;99.90;;;;;;4991505;28;20175;-75
2022/03/05 06:08:59;;;;;;;16.20;8.47;;;-4.30;99.90;;;;;;4991968;28;20187;-75
2022/03/05 06:11:24;;;;;;;10.73;5.93;;;-4.30;99.90;;;;;;4991333;28;20203;-75
2022/03/05 06:13:50;;;;;;;12.43;7.17;;;-4.30;99.90;;;;;;4990152;28;20275;-75
2022/03/05 06:16:15;;;;;;;10.43;6.37;;;-4.30;99.90;;;;;;4991181;28;20180;-75
2022/03/05 06:18:41;;;;;;;9.90;7.03;;;-4.20;99.90;;;;;;4991197;28;20586;-74
2022/03/05 06:21:07;;;;;;;12.40;7.10;;;-4.10;99.90;;;;;;4990554;28;20199;-75
2022/03/05 06:23:33;;;;;;;11.07;6.57;;;-3.90;99.90;;;;;;4990514;28;20259;-75
2022/03/05 06:25:59;;;;;;;13.53;7.00;;;-3.80;99.90;;;;;;4990587;28;20468;-75
2022/03/05 06:28:24;;;;;;;14.60;6.20;;;-3.70;99.90;;;;;;4990881;28;20648;-75
2022/03/05 06:30:50;;;;;;;12.60;6.23;;;-3.60;99.90;;;;;;4990428;28;20175;-74
2022/03/05 06:33:15;;;;;;;9.80;6.23;;;-3.50;99.90;;;;;;4989793;28;20191;-75
2022/03/05 06:35:41;;;;;;;12.37;6.67;;;-3.30;99.90;;;;;;4990487;28;20557;-75
2022/03/05 06:38:07;;;;;;;23.33;7.20;;;-3.20;99.90;;;;;;4990406;28;20215;-75
2022/03/05 06:40:33;;;;;;;13.53;6.73;;;-3.10;99.90;;;;;;4990847;28;20175;-74
2022/03/05 06:42:58;;;;;;;12.10;6.70;;;-2.90;99.90;;;;;;4989659;28;20520;-75
2022/03/05 06:45:24;;;;;;;13.97;5.97;;;-2.80;99.90;;;;;;4990641;28;20184;-74
2022/03/05 06:47:49;;;;;;;11.13;6.40;;;-2.60;99.90;;;;;;4990597;28;20640;-74
2022/03/05 06:50:15;;;;;;;14.70;6.77;;;-2.60;99.90;;;;;;4990036;28;20648;-75
2022/03/05 06:52:40;;;;;;;11.93;6.63;;;-2.40;99.90;;;;;;4990933;28;20238;-74
2022/03/05 06:55:07;;;;;;;14.23;7.30;;;-2.20;99.90;;;;;;4990348;28;20177;-74
2022/03/05 06:57:33;;;;;;;12.80;7.30;;;-2.10;99.90;;;;;;4926022;28;20986;-77
2022/03/05 06:59:58;;;;;;;14.43;6.63;;;-1.60;99.90;;;;;;4877702;28;20769;-77
2022/03/05 07:02:24;;;;;;;9.00;6.33;;;-0.70;99.90;;;;;;4871645;28;20734;-79
2022/03/05 07:04:50;;;;;;;6.60;5.53;;;0.90;99.90;;;;;;4879086;28;20612;-79
2022/03/05 07:07:16;;;;;;;13.23;7.50;;;1.30;99.90;;;;;;4884654;28;20558;-79
2022/03/05 07:09:42;;;;;;;11.73;6.90;;;2.10;99.90;;;;;;4862547;28;20593;-82
2022/03/05 07:12:09;;;;;;;14.17;8.23;;;3.90;99.90;;;;;;4868479;28;20869;-80
2022/03/05 07:14:36;;;;;;;18.97;9.67;;;5.00;99.90;;;;;;4876864;28;20928;-79
2022/03/05 07:17:03;;;;;;;16.60;9.60;;;6.40;99.90;;;;;;4881874;28;20645;-80
2022/03/05 07:19:28;;;;;;;12.30;8.30;;;7.50;99.90;;;;;;4947561;28;20828;-72
2022/03/05 07:21:54;;;;;;;10.33;7.63;;;8.00;99.90;;;;;;4977655;28;20423;-72
2022/03/05 07:24:19;;;;;;;14.13;8.77;;;8.40;99.90;;;;;;4977930;28;20172;-72
2022/03/05 07:26:45;;;;;;;11.83;9.10;;;8.40;99.90;;;;;;4984392;28;20171;-72
2022/03/05 07:29:10;;;;;;;13.73;8.30;;;8.60;99.90;;;;;;4977797;28;20176;-72
2022/03/05 07:31:37;;;;;;;15.30;10.00;;;9.50;99.90;;;;;;4974738;28;20204;-72
2022/03/05 07:34:03;;;;;;;15.03;10.30;;;9.80;99.90;;;;;;4979495;28;20180;-73
2022/03/05 07:36:30;;;;;;;15.17;10.57;;;10.10;99.90;;;;;;4978797;28;20481;-73
2022/03/05 07:38:55;;;;;;;14.27;10.50;;;10.20;99.90;;;;;;4978364;28;20168;-73
2022/03/05 07:41:21;;;;;;;15.80;11.37;;;10.00;99.90;;;;;;4978014;28;20930;-73
2022/03/05 07:43:47;;;;;;;17.00;10.73;;;10.00;99.90;;;;;;4978272;28;20171;-73
2022/03/05 07:46:12;;;;;;;18.57;11.80;;;10.40;99.90;;;;;;4980074;28;20177;-72
2022/03/05 07:48:38;;;;;;;16.80;11.67;;;9.90;99.90;;;;;;4978098;28;20414;-72
2022/03/05 07:51:04;;;;;;;19.40;12.27;;;9.50;99.90;;;;;;4977928;28;20980;-71
2022/03/05 07:53:33;;;;;;;20.90;12.33;;;9.30;99.90;;;;;;4980259;28;20181;-72
2022/03/05 07:55:58;;;;;;;18.90;11.37;;;9.00;99.90;;;;;;4983760;28;20535;-73
2022/03/05 07:58:24;;;;;;;23.67;11.83;;;8.80;99.90;;;;;;4989579;28;20497;-73
2022/03/05 08:00:50;;;;;;;22.30;13.70;;;8.20;99.90;;;;;;4988434;28;20176;-73
2022/03/05 08:03:16;;;;;;;17.50;12.60;;;8.10;99.90;;;;;;4991264;28;20182;-72
2022/03/05 08:05:43;;;;;;;25.10;12.80;;;8.10;99.90;;;;;;4978294;28;20247;-72
2022/03/05 08:08:08;;;;;;;28.43;13.80;;;8.00;99.90;;;;;;4973305;28;20413;-73
2022/03/05 08:10:34;;;;;;;22.30;13.90;;;8.10;99.90;;;;;;4973621;28;20517;-72
2022/03/05 08:12:59;;;;;;;25.13;13.03;;;8.00;99.90;;;;;;4972108;28;20178;-72
2022/03/05 08:15:25;;;;;;;23.70;13.60;;;8.20;99.90;;;;;;4973698;28;20220;-72
2022/03/05 08:17:55;;;;;;;19.83;12.80;;;8.10;99.90;;;;;;4973274;28;20208;-73
2022/03/05 08:20:23;;;;;;;24.00;13.90;;;8.20;99.90;;;;;;4973541;28;20262;-72
2022/03/05 08:22:49;;;;;;;26.73;14.87;;;7.90;99.90;;;;;;4973587;28;20515;-74
2022/03/05 08:25:15;;;;;;;22.40;14.60;;;8.00;99.90;;;;;;4972381;28;20566;-76
2022/03/05 08:27:41;;;;;;;21.77;13.37;;;7.90;99.90;;;;;;4974006;28;20179;-74
2022/03/05 08:30:08;;;;;;;27.00;13.13;;;8.30;99.90;;;;;;4972624;28;20185;-74
2022/03/05 08:32:34;;;;;;;25.13;14.43;;;8.70;99.90;;;;;;4973606;28;20480;-74
2022/03/05 08:34:59;;;;;;;26.23;13.43;;;8.70;99.90;;;;;;4971774;28;20928;-74
2022/03/05 08:37:25;;;;;;;21.47;13.50;;;8.80;99.90;;;;;;4973700;28;20304;-74
2022/03/05 08:39:50;;;;;;;24.33;13.50;;;9.10;99.90;;;;;;4973214;28;20205;-74
2022/03/05 08:42:16;;;;;;;25.30;13.50;;;9.30;99.90;;;;;;4989595;28;20203;-75
2022/03/05 08:44:42;;;;;;;21.00;13.73;;;9.20;99.90;;;;;;4992122;28;20295;-76
2022/03/05 08:47:07;;;;;;;25.03;13.53;;;9.10;99.90;;;;;;4993041;28;20657;-75
2022/03/05 08:49:33;;;;;;;24.63;14.53;;;9.30;99.90;;;;;;4992705;28;20586;-74
2022/03/05 08:51:59;;;;;;;22.13;15.20;;;9.60;99.90;;;;;;4992048;28;20237;-75
2022/03/05 08:54:25;;;;;;;19.80;15.07;;;9.50;99.90;;;;;;4992034;28;20180;-75
2022/03/05 08:56:51;;;;;;;20.60;12.50;;;9.60;99.90;;;;;;4992484;28;20197;-75
2022/03/05 08:59:17;;;;;;;24.30;14.53;;;9.10;99.90;;;;;;4992147;28;20453;-76
2022/03/05 09:01:44;;;;;;;19.97;12.20;;;8.70;99.90;;;;;;4992034;28;20728;-75
2022/03/05 09:04:09;;;;;;;23.67;13.53;;;8.40;99.90;;;;;;4991692;28;20423;-76
2022/03/05 09:06:35;;;;;;;21.97;13.30;;;8.40;99.90;;;;;;4992332;28;20424;-75
2022/03/05 09:09:01;;;;;;;20.27;12.23;;;8.50;99.90;;;;;;4991536;28;20678;-75
2022/03/05 09:11:26;;;;;;;20.53;12.30;;;8.90;99.90;;;;;;4991849;28;20737;-75
2022/03/05 09:13:52;;;;;;;20.77;13.23;;;9.00;99.90;;;;;;4990711;28;20641;-74
2022/03/05 09:16:18;;;;;;;19.63;11.70;;;8.70;99.90;;;;;;4992396;28;20269;-74
2022/03/05 09:18:44;;;;;;;21.33;12.37;;;8.80;99.90;;;;;;4992290;28;20874;-74
2022/03/05 09:21:09;;;;;;;27.40;13.70;;;9.20;99.90;;;;;;4992010;28;20672;-74
2022/03/05 09:23:35;;;;;;;19.80;13.07;;;9.10;99.90;;;;;;4990872;28;20268;-74
2022/03/05 09:26:00;;;;;;;23.80;13.00;;;9.10;99.90;;;;;;4991043;28;20443;-74
2022/03/05 09:28:26;;;;;;;22.50;13.63;;;9.30;99.90;;;;;;4991861;28;20180;-74
2022/03/05 09:30:52;;;;;;;18.00;11.10;;;9.30;99.90;;;;;;4991500;28;20189;-75
2022/03/05 09:33:19;;;;;;;24.70;13.37;;;9.60;99.90;;;;;;4991229;28;20193;-76
2022/03/05 09:35:45;;;;;;;19.60;11.23;;;9.80;99.90;;;;;;4987812;28;20188;-75
2022/03/05 09:38:10;;;;;;;19.20;10.90;;;10.00;99.90;;;;;;4983452;28;20466;-75
2022/03/05 09:40:36;;;;;;;18.43;11.00;;;10.30;99.50;;;;;;4984745;28;20552;-75
2022/03/05 09:43:02;;;;;;;17.67;11.13;;;10.50;99.50;;;;;;4972961;28;20551;-73
2022/03/05 09:45:28;;;;;;;16.90;10.97;;;10.80;97.90;;;;;;4972245;28;20415;-73
2022/03/05 09:47:56;;;;;;;21.80;11.77;;;10.80;97.40;;;;;;4971536;28;20551;-73
2022/03/05 09:50:24;;;;;;;18.17;12.20;;;10.50;96.80;;;;;;4970314;28;20407;-73
2022/03/05 09:52:50;;;;;;;18.17;11.50;;;9.80;97.00;;;;;;4971445;28;20454;-73
2022/03/05 09:55:15;;;;;;;14.77;10.23;;;9.80;97.00;;;;;;4972612;28;20416;-73
2022/03/05 09:57:41;;;;;;;18.30;9.60;;;9.50;97.20;;;;;;4971585;28;20209;-73
2022/03/05 10:00:07;;;;;;;16.13;9.60;;;9.90;98.20;;;;;;4972785;28;20181;-74
2022/03/05 10:02:33;;;;;;;13.47;9.93;;;10.40;96.50;;;;;;4972061;28;20206;-74
2022/03/05 10:05:21;;;;;;;16.53;11.67;;;10.40;95.40;;;;;;4971504;28;20443;-73
2022/03/05 10:08:02;;;;;;;17.20;10.87;;;10.10;95.30;;;;;;4971912;28;20176;-73
2022/03/05 10:10:28;;;;;;;20.67;11.90;;;10.70;97.40;;;;;;4971507;28;20432;-74
2022/03/05 10:12:54;;;;;;;18.60;11.23;;;11.30;96.70;;;;;;4970198;28;20529;-75
2022/03/05 10:15:21;;;;;;;18.37;12.00;;;10.80;95.30;;;;;;4971207;28;20417;-75
2022/03/05 10:17:49;;;;;;;17.87;11.67;;;10.40;95.60;;;;;;4971731;28;20240;-76
2022/03/05 10:20:15;;;;;;;19.10;10.70;;;10.60;95.60;;;;;;4970959;28;20459;-76
2022/03/05 10:23:02;;;;;;;16.97;11.67;;;10.70;94.90;;;;;;4970444;28;20444;-75
2022/03/05 10:25:29;;;;;;;13.87;9.40;;;10.70;94.70;;;;;;4970749;28;20663;-76
2022/03/05 10:28:09;;;;;;;17.00;10.17;;;11.10;94.60;;;;;;4971711;28;20441;-75
2022/03/05 10:30:43;;;;;;;18.80;11.70;;;11.20;94.30;;;;;;4971649;28;20425;-74
2022/03/05 10:33:25;;;;;;;17.23;10.53;;;10.70;94.60;;;;;;4971117;28;20428;-75
2022/03/05 10:35:51;;;;;;;17.50;10.13;;;10.60;93.70;;;;;;4972055;28;20426;-75
2022/03/05 10:38:17;;;;;;;17.53;10.80;;;9.90;94.30;;;;;;4971194;28;21112;-75
2022/03/05 10:40:42;;;;;;;17.40;10.60;;;10.30;95.00;;;;;;4971667;28;20178;-75
2022/03/05 10:43:08;;;;;;;17.83;10.70;;;10.20;93.90;;;;;;4970612;28;20256;-76
2022/03/05 10:45:58;;;;;;;15.83;10.47;;;10.60;93.70;;;;;;4971278;28;20188;-74
2022/03/05 10:48:25;;;;;;;13.73;9.83;;;10.20;92.90;;;;;;4970697;28;20200;-75
2022/03/05 10:51:12;;;;;;;11.93;9.47;;;10.20;92.70;;;;;;4971273;28;20419;-76
2022/03/05 10:53:43;;;;;;;20.03;11.40;;;10.20;93.10;;;;;;4971225;28;20926;-73
2022/03/05 10:56:29;;;;;;;13.67;8.90;;;10.40;92.90;;;;;;4970702;28;20502;-74
2022/03/05 10:59:02;;;;;;;11.63;7.90;;;10.10;92.80;;;;;;4971860;28;20468;-74
2022/03/05 11:01:29;;;;;;;13.63;9.70;;;9.90;93.40;;;;;;4970421;28;20480;-75
2022/03/05 11:03:56;;;;;;;13.53;9.53;;;9.90;93.40;;;;;;4971623;28;20419;-74
2022/03/05 11:06:23;;;;;;;15.65;10.80;;;9.60;93.60;;;;;;4970721;28;20409;-74
2022/03/05 11:08:49;;;;;;;14.80;9.50;;;9.10;93.60;;;;;;4970725;28;20193;-74
2022/03/05 11:11:17;;;;;;;12.48;9.15;;;9.20;94.20;;;;;;4969939;28;20417;-73
2022/03/05 11:13:43;;;;;;;14.40;9.40;;;8.80;93.40;;;;;;4968920;28;20185;-74
2022/03/05 11:16:10;;;;;;;21.33;9.80;;;9.10;93.20;;;;;;4969926;28;20433;-74
2022/03/05 11:18:37;;;;;;;15.40;9.83;;;9.20;94.20;;;;;;4969735;28;20553;-74
2022/03/05 11:21:03;;;;;;;12.33;8.00;;;9.70;93.70;;;;;;4970516;28;20442;-74
2022/03/05 11:23:30;;;;;;;14.30;9.63;;;9.50;92.90;;;;;;4970194;28;20406;-74
2022/03/05 11:25:57;;;;;;;12.03;8.67;;;9.20;93.10;;;;;;4970165;28;20430;-74
2022/03/05 11:28:23;;;;;;;12.47;8.70;;;9.10;93.60;;;;;;4971249;28;20802;-74
2022/03/05 11:30:55;;;;;;;15.73;9.70;;;9.10;93.50;;;;;;4970771;28;20415;-74
2022/03/05 11:33:43;;;;;;;15.40;9.73;;;8.80;93.20;;;;;;4970050;28;20184;-74
2022/03/05 11:36:24;;;;;;;16.60;9.57;;;8.80;93.70;;;;;;4970545;28;20521;-74
2022/03/05 11:39:17;;;;;;;19.07;10.70;;;8.70;94.10;;;;;;4974158;28;20503;-74
2022/03/05 11:42:04;;;;;;;16.20;10.00;;;9.10;93.90;;;;;;4974805;28;20528;-74
2022/03/05 11:44:39;;;;;;;12.30;7.80;;;9.10;94.20;;;;;;4974405;28;20416;-74
2022/03/05 11:47:32;;;;;;;14.67;9.17;;;9.60;93.40;;;;;;4976719;28;20422;-75
2022/03/05 11:50:00;;;;;;;11.50;8.97;;;10.00;92.00;;;;;;4975524;28;20415;-74
2022/03/05 11:52:38;;;;;;;12.40;7.90;;;9.70;92.00;;;;;;4976151;28;20518;-74
2022/03/05 11:55:26;;;;;;;16.07;8.63;;;9.40;91.20;;;;;;4976542;28;20502;-74
2022/03/05 11:57:52;;;;;;;13.93;9.80;;;8.90;91.50;;;;;;4975920;28;20440;-75
2022/03/05 12:00:25;;;;;;;15.37;9.10;;;8.60;92.20;;;;;;4974330;28;20570;-75
2022/03/05 12:02:54;;;;;;;12.10;7.70;;;8.50;92.10;;;;;;4974146;28;20201;-75
2022/03/05 12:05:40;;;;;;;13.27;9.73;;;8.40;92.30;;;;;;4975632;28;20428;-75
2022/03/05 12:08:08;;;;;;;12.77;9.03;;;8.70;92.20;;;;;;4975405;28;20420;-75
2022/03/05 12:10:34;;;;;;;11.57;8.20;;;8.90;92.10;;;;;;4973223;28;20387;-75
2022/03/05 12:13:05;;;;;;;12.27;7.50;;;9.40;93.00;;;;;;4973765;28;20429;-75
2022/03/05 12:15:44;;;;;;;18.20;8.47;;;9.70;92.20;;;;;;4974193;28;20506;-75
2022/03/05 12:18:12;;;;;;;16.17;8.40;;;9.70;91.00;;;;;;4973512;28;20461;-75
2022/03/05 12:20:42;;;;;;;16.60;8.13;;;9.40;90.10;;;;;;4973252;28;20438;-75
2022/03/05 12:23:10;;;;;;;12.90;7.70;;;9.00;90.50;;;;;;4977682;28;20420;-74
2022/03/05 12:25:40;;;;;;;9.77;7.37;;;8.70;89.70;;;;;;4993194;28;20407;-74
2022/03/05 12:28:13;;;;;;;11.27;7.90;;;8.50;90.40;;;;;;4993067;28;20512;-74
2022/03/05 12:30:39;;;;;;;15.17;8.53;;;8.30;92.10;;;;;;4992801;28;20428;-74
2022/03/05 12:33:07;;;;;;;11.70;7.20;;;8.40;92.60;;;;;;4991658;28;20439;-75
2022/03/05 12:35:34;;;;;;;13.27;8.43;;;8.50;92.00;;;;;;4994229;28;20428;-74
2022/03/05 12:38:00;;;;;;;13.23;8.57;;;8.50;91.60;;;;;;4993077;28;20465;-75
2022/03/05 12:40:28;;;;;;;12.47;8.87;;;8.50;91.70;;;;;;4992430;28;20419;-75
2022/03/05 12:42:56;;;;;;;12.77;7.73;;;8.50;92.00;;;;;;4992131;28;20257;-75
2022/03/05 12:45:25;;;;;;;13.90;8.70;;;8.60;92.60;;;;;;4992034;28;20417;-74
2022/03/05 12:47:53;;;;;;;13.50;8.47;;;8.50;91.60;;;;;;4992077;28;20933;-75
2022/03/05 12:50:34;;;;;;;10.93;7.87;;;8.60;91.80;;;;;;4992278;28;20475;-75
2022/03/05 12:53:20;;;;;;;11.93;8.30;;;8.80;90.90;;;;;;4991246;28;20516;-75
2022/03/05 12:55:55;;;;;;;8.60;6.00;;;8.30;90.70;;;;;;4991595;28;20788;-75
2022/03/05 12:58:32;;;;;;;9.83;6.37;;;8.20;90.40;;;;;;4991317;28;21272;-75
2022/03/05 13:01:09;;;;;;;8.50;5.57;;;8.30;90.10;;;;;;4929003;28;20475;-77
2022/03/05 13:03:37;;;;;;;10.47;6.20;;;8.30;90.00;;;;;;4923411;28;20490;-75
2022/03/05 13:06:04;;;;;;;7.93;5.73;;;8.20;91.00;;;;;;4945550;28;20457;-74
2022/03/05 13:08:32;;;;;;;10.17;6.43;;;8.40;90.00;;;;;;4978857;28;20821;-74
2022/03/05 13:11:09;;;;;;;8.60;5.90;;;8.50;89.10;;;;;;4988515;28;20823;-74
2022/03/05 13:13:37;;;;;;;8.67;5.40;;;8.30;88.00;;;;;;4970954;28;20482;-73
2022/03/05 13:16:08;;;;;;;9.80;7.47;;;8.20;88.50;;;;;;4972052;28;20453;-75
2022/03/05 13:18:34;;;;;;;11.40;8.00;;;7.90;88.10;;;;;;4971188;28;20453;-76
2022/03/05 13:21:05;;;;;;;7.13;5.33;;;7.70;88.00;;;;;;4971658;28;20237;-75
2022/03/05 13:23:35;;;;;;;9.53;6.37;;;7.60;88.90;;;;;;4971544;28;20212;-74
2022/03/05 13:26:02;;;;;;;10.37;6.33;;;7.50;87.60;;;;;;4973201;28;20539;-74
2022/03/05 13:28:29;;;;;;;9.17;5.40;;;7.50;88.10;;;;;;4972690;28;20459;-74
2022/03/05 13:30:57;;;;;;;11.20;6.33;;;7.30;89.40;;;;;;4972131;28;20429;-74
2022/03/05 13:33:47;;;;;;;7.77;5.50;;;7.40;89.70;;;;;;4971971;28;21298;-74
2022/03/05 13:36:30;;;;;;;7.80;5.87;;;7.50;87.60;;;;;;4972162;28;20488;-73
2022/03/05 13:39:12;;;;;;;9.30;5.63;;;7.50;87.70;;;;;;4971558;28;20502;-74
2022/03/05 13:41:56;;;;;;;11.10;7.40;;;7.60;90.10;;;;;;4971633;28;20447;-75
2022/03/05 13:44:24;;;;;;;10.35;7.65;;;7.80;89.80;;;;;;4970642;28;20558;-74
2022/03/05 13:46:53;;;;;;;8.50;7.00;;;7.80;90.00;;;;;;4972148;28;20121;-75
2022/03/05 13:49:20;;;;;;;12.10;8.50;;;7.90;90.20;;;;;;4970660;28;20242;-75
2022/03/05 13:51:48;;;;;;;12.90;8.23;;;8.10;90.40;;;;;;4971714;28;20442;-74
2022/03/05 13:54:14;;;;;;;14.80;8.50;;;8.20;90.50;;;;;;4970722;28;20488;-75
2022/03/05 13:56:45;;;;;;;8.93;6.60;;;8.00;90.40;;;;;;4970587;28;20863;-74
2022/03/05 13:59:12;;;;;;;12.70;7.80;;;8.00;90.50;;;;;;4970545;28;20225;-73
2022/03/05 14:01:42;;;;;;;12.03;8.13;;;7.90;90.50;;;;;;4970762;28;20939;-74
2022/03/05 14:04:18;;;;;;;12.63;8.10;;;7.90;90.90;;;;;;4969793;28;20474;-74
2022/03/05 14:06:45;;;;;;;9.83;7.37;;;7.80;90.70;;;;;;4971560;28;20452;-73
2022/03/05 14:09:27;;;;;;;14.50;9.10;;;7.70;90.80;;;;;;4968435;28;20811;-73
2022/03/05 14:12:11;;;;;;;10.07;7.27;;;7.60;90.70;;;;;;4970820;28;20544;-73
2022/03/05 14:14:56;;;;;;;11.10;8.20;;;7.60;91.00;;;;;;4968841;28;20466;-73
2022/03/05 14:17:25;;;;;;;12.33;6.53;;;7.70;91.10;;;;;;4971157;28;20468;-74
2022/03/05 14:20:12;;;;;;;11.43;8.70;;;7.70;90.80;;;;;;4970401;28;20445;-73
2022/03/05 14:22:46;;;;;;;13.07;7.70;;;7.60;91.10;;;;;;4971085;28;20433;-73
2022/03/05 14:25:23;;;;;;;12.80;8.30;;;7.60;90.90;;;;;;4970328;28;20561;-72
2022/03/05 14:27:56;;;;;;;10.90;7.43;;;7.50;90.70;;;;;;4971162;28;20441;-72
2022/03/05 14:30:24;;;;;;;11.80;7.20;;;7.50;90.60;;;;;;4970420;28;20421;-75
2022/03/05 14:32:50;;;;;;;13.63;7.50;;;7.60;90.70;;;;;;4970109;28;20462;-74
2022/03/05 14:35:16;;;;;;;13.83;7.90;;;7.60;90.50;;;;;;4970661;28;20431;-75
2022/03/05 14:37:43;;;;;;;12.63;7.90;;;7.60;90.70;;;;;;4971285;28;20520;-74
2022/03/05 14:40:12;;;;;;;12.07;8.40;;;7.60;91.00;;;;;;4970967;28;20436;-75
2022/03/05 14:42:38;;;;;;;13.27;7.20;;;7.50;90.40;;;;;;4971308;28;20472;-74
2022/03/05 14:45:06;;;;;;;15.27;10.27;;;7.50;90.20;;;;;;4969171;28;20819;-75
2022/03/05 14:47:32;;;;;;;20.33;11.47;;;7.40;90.00;;;;;;4971106;28;20469;-74
2022/03/05 14:49:59;;;;;;;18.20;9.10;;;7.30;90.30;;;;;;4970868;28;20441;-73
2022/03/05 14:52:25;;;;;;;9.80;6.87;;;7.40;90.50;;;;;;4971207;28;20208;-74
2022/03/05 14:54:51;;;;;;;11.97;6.30;;;7.40;90.20;;;;;;4970993;28;20488;-75
2022/03/05 14:57:20;;;;;;;9.20;6.60;;;7.40;90.20;;;;;;4971057;28;20462;-74
2022/03/05 14:59:48;;;;;;;13.13;7.03;;;7.40;90.20;;;;;;4970733;28;20415;-74
2022/03/05 15:02:15;;;;;;;11.80;7.37;;;7.40;90.30;;;;;;4970872;28;20436;-74
2022/03/05 15:04:40;;;;;;;12.10;6.87;;;7.40;90.10;;;;;;4970465;28;20423;-73
2022/03/05 15:07:06;;;;;;;7.40;5.97;;;7.40;90.00;;;;;;4971281;28;20422;-73
2022/03/05 15:09:32;;;;;;;7.90;5.93;;;7.40;89.00;;;;;;4970973;28;20638;-74
2022/03/05 15:11:58;;;;;;;10.57;6.60;;;7.40;89.50;;;;;;4972692;28;20207;-74
2022/03/05 15:14:23;;;;;;;9.40;6.50;;;7.30;89.00;;;;;;4974167;28;20182;-74
2022/03/05 15:16:49;;;;;;;9.60;7.03;;;7.30;89.10;;;;;;4974991;28;20417;-73
2022/03/05 15:19:16;;;;;;;10.03;6.00;;;7.30;89.20;;;;;;4974591;28;20651;-73
2022/03/05 15:21:42;;;;;;;8.37;5.70;;;7.30;89.00;;;;;;4974145;28;20327;-73
2022/03/05 15:24:08;;;;;;;9.90;5.60;;;7.30;89.30;;;;;;4974079;28;20404;-73
2022/03/05 15:26:33;;;;;;;9.70;5.90;;;7.20;89.00;;;;;;4975235;28;20435;-74
2022/03/05 15:28:59;;;;;;;11.60;6.27;;;7.20;90.20;;;;;;4974090;28;20187;-74
2022/03/05 15:31:24;;;;;;;7.60;6.30;;;7.10;88.70;;;;;;4973964;28;20678;-74
2022/03/05 15:33:50;;;;;;;9.03;5.60;;;7.00;89.30;;;;;;4956158;28;20255;-73
2022/03/05 15:36:16;;;;;;;10.90;6.13;;;6.90;89.20;;;;;;4973142;28;20256;-74
2022/03/05 15:38:42;;;;;;;10.43;6.20;;;6.90;90.00;;;;;;4971443;28;20214;-74
2022/03/05 15:41:10;;;;;;;8.83;5.80;;;6.90;90.00;;;;;;4956185;28;20439;-74
2022/03/05 15:43:36;;;;;;;10.67;6.87;;;6.90;89.00;;;;;;4972819;28;20417;-74
2022/03/05 15:46:03;;;;;;;9.23;5.60;;;6.80;89.00;;;;;;4974351;28;20417;-74
2022/03/05 15:48:29;;;;;;;9.00;6.20;;;6.80;88.00;;;;;;4975252;28;20396;-74
2022/03/05 15:50:55;;;;;;;9.40;5.60;;;6.80;88.90;;;;;;4972877;28;20407;-74
2022/03/05 15:53:20;;;;;;;9.03;5.73;;;6.70;88.70;;;;;;4971152;28;21172;-75
2022/03/05 15:55:46;;;;;;;9.50;6.77;;;6.70;89.40;;;;;;4972935;28;20237;-73
2022/03/05 15:58:13;;;;;;;6.37;5.47;;;6.70;89.40;;;;;;4972789;28;20210;-74
2022/03/05 16:00:39;;;;;;;11.10;6.70;;;6.60;90.30;;;;;;4972563;28;20180;-74
2022/03/05 16:03:04;;;;;;;9.73;6.33;;;6.70;90.40;;;;;;4970678;28;20497;-74
2022/03/05 16:05:30;;;;;;;9.30;6.20;;;6.60;90.60;;;;;;4972551;28;20812;-75
2022/03/05 16:07:57;;;;;;;12.80;6.57;;;6.70;90.60;;;;;;4974382;28;20179;-75
2022/03/05 16:10:23;;;;;;;8.80;6.93;;;6.60;90.60;;;;;;4972543;28;20765;-75
2022/03/05 16:12:49;;;;;;;9.53;6.30;;;6.60;91.20;;;;;;4972179;28;20490;-75
2022/03/05 16:15:15;;;;;;;9.50;6.87;;;6.60;91.20;;;;;;4972319;28;20464;-75
2022/03/05 16:17:41;;;;;;;10.43;5.70;;;6.50;90.20;;;;;;4972384;28;20210;-75
2022/03/05 16:20:07;;;;;;;11.50;7.40;;;6.40;90.20;;;;;;4971846;28;20425;-75
2022/03/05 16:22:33;;;;;;;12.13;6.63;;;6.30;90.10;;;;;;4971861;28;20211;-75
2022/03/05 16:24:58;;;;;;;9.60;6.33;;;6.30;90.10;;;;;;4971390;28;20428;-74
2022/03/05 16:27:24;;;;;;;11.50;7.60;;;6.20;90.10;;;;;;4972238;28;20187;-74
2022/03/05 16:29:50;;;;;;;11.13;6.20;;;6.20;90.10;;;;;;4972160;28;20182;-75
2022/03/05 16:32:16;;;;;;;13.97;7.43;;;6.10;90.20;;;;;;4973047;28;20556;-75
2022/03/05 16:34:41;;;;;;;9.00;5.87;;;6.10;90.20;;;;;;4970984;28;20654;-75
2022/03/05 16:37:07;;;;;;;12.93;6.73;;;6.10;90.20;;;;;;4973111;28;20187;-75
2022/03/05 16:39:33;;;;;;;8.73;5.87;;;6.00;90.30;;;;;;4972248;28;20671;-75
2022/03/05 16:41:58;;;;;;;10.70;6.23;;;6.00;90.30;;;;;;4973535;28;20574;-76
2022/03/05 16:44:25;;;;;;;14.67;7.43;;;5.90;90.70;;;;;;4971206;28;20189;-75
2022/03/05 16:46:51;;;;;;;10.13;5.73;;;5.80;91.00;;;;;;4973106;28;20181;-75
2022/03/05 16:49:18;;;;;;;7.83;6.20;;;5.70;90.70;;;;;;4971631;28;20458;-75
2022/03/05 16:51:44;;;;;;;9.87;7.43;;;5.70;91.10;;;;;;4973194;28;20430;-75
2022/03/05 16:54:10;;;;;;;9.47;6.73;;;5.70;91.20;;;;;;4955290;28;20444;-75
2022/03/05 16:56:38;;;;;;;10.93;5.60;;;5.60;91.20;;;;;;4971820;28;20485;-76
2022/03/05 16:59:05;;;;;;;11.53;6.37;;;5.50;91.50;;;;;;4955566;28;20560;-75
2022/03/05 17:01:31;;;;;;;10.43;7.43;;;5.50;91.60;;;;;;4971340;28;20442;-76
2022/03/05 17:03:57;;;;;;;11.40;5.40;;;5.50;91.80;;;;;;4971847;28;20454;-75
2022/03/05 17:06:23;;;;;;;9.67;8.10;;;5.30;92.00;;;;;;4971302;28;20951;-75
2022/03/05 17:08:48;;;;;;;10.00;7.70;;;5.30;92.10;;;;;;4972998;28;20194;-75
2022/03/05 17:11:14;;;;;;;17.70;14.07;;;5.30;92.40;;;;;;4970413;28;20228;-76
2022/03/05 17:13:42;;;;;;;16.37;9.77;;;5.20;92.80;;;;;;4970784;28;20679;-75
2022/03/05 17:16:08;;;;;;;11.43;7.83;;;5.10;93.10;;;;;;4971445;28;20193;-75
2022/03/05 17:18:34;;;;;;;13.30;7.00;;;5.10;93.20;;;;;;4971537;28;20468;-74